Time;durP1;ratioP1;P1;durP2;ratioP2;P2;SDS_P1;SDS_P2;PMS_P1;PMS_P2;Temp;Humidity;BMP_temperature;BMP_pressure;BME280_temperature;BME280_humidity;BME280_pressure;Samples;Min_cycle;Max_cycle;Signal;HPM_P1;HPM_P2
2022/03/15 00:01:30;;;;;;;13.98;6.50;;;;;;;;;;5087515;28;20040;-62
2022/03/15 00:03:56;;;;;;;16.13;5.97;;;;;;;;;;5085770;28;20054;-62
2022/03/15 00:06:22;;;;;;;9.50;5.10;;;;;;;;;;5086480;28;20040;-64
2022/03/15 00:08:48;;;;;;;17.17;5.00;;;;;;;;;;5086559;28;20483;-62
2022/03/15 00:11:14;;;;;;;11.13;4.68;;;;;;;;;;5088352;28;20078;-62
2022/03/15 00:13:40;;;;;;;11.45;4.80;;;;;;;;;;5086633;28;20134;-62
2022/03/15 00:16:07;;;;;;;11.82;5.40;;;;;;;;;;5084667;28;20037;-62
2022/03/15 00:18:33;;;;;;;8.77;5.35;;;;;;;;;;5089573;28;20048;-62
2022/03/15 00:21:01;;;;;;;12.27;5.45;;;;;;;;;;5085914;28;20094;-63
2022/03/15 00:23:27;;;;;;;12.95;5.28;;;;;;;;;;5085991;28;20052;-62
2022/03/15 00:25:53;;;;;;;14.63;6.05;;;;;;;;;;5088657;28;20442;-62
2022/03/15 00:28:22;;;;;;;17.92;6.45;;;;;;;;;;5086632;28;20040;-62
2022/03/15 00:30:48;;;;;;;16.55;6.88;;;;;;;;;;5088561;28;20399;-61
2022/03/15 00:33:15;;;;;;;18.33;7.35;;;;;;;;;;5085798;28;20124;-62
2022/03/15 00:35:41;;;;;;;16.40;7.13;;;;;;;;;;5088778;28;20040;-62
2022/03/15 00:38:08;;;;;;;21.10;8.18;;;;;;;;;;5086039;28;20105;-62
2022/03/15 00:40:34;;;;;;;19.58;7.80;;;;;;;;;;5082535;28;20101;-63
2022/03/15 00:43:00;;;;;;;27.67;10.77;;;;;;;;;;5086751;28;20694;-62
2022/03/15 00:45:28;;;;;;;19.80;9.65;;;;;;;;;;5087627;28;20056;-62
2022/03/15 00:47:54;;;;;;;23.88;9.73;;;;;;;;;;5086120;28;20048;-62
2022/03/15 00:50:21;;;;;;;19.58;9.82;;;;;;;;;;5087050;28;20059;-62
2022/03/15 00:52:47;;;;;;;18.60;8.43;;;;;;;;;;5087462;28;20034;-62
2022/03/15 00:55:13;;;;;;;19.88;8.90;;;;;;;;;;5089441;28;20088;-62
2022/03/15 00:57:39;;;;;;;13.23;7.30;;;;;;;;;;5087461;28;20047;-62
2022/03/15 01:00:07;;;;;;;19.35;8.05;;;;;;;;;;5087184;28;20420;-62
2022/03/15 01:02:33;;;;;;;23.08;8.40;;;;;;;;;;5087089;28;20051;-63
2022/03/15 01:05:01;;;;;;;16.15;7.20;;;;;;;;;;5087114;28;20024;-62
2022/03/15 01:07:27;;;;;;;17.08;6.78;;;;;;;;;;5084235;28;20483;-62
2022/03/15 01:09:53;;;;;;;13.18;7.43;;;;;;;;;;5086350;28;20055;-62
2022/03/15 01:12:20;;;;;;;14.07;6.82;;;;;;;;;;5086525;28;20048;-62
2022/03/15 01:14:46;;;;;;;16.48;6.88;;;;;;;;;;5088317;28;20402;-62
2022/03/15 01:17:12;;;;;;;13.50;6.32;;;;;;;;;;5087746;28;20046;-62
2022/03/15 01:19:38;;;;;;;11.82;5.75;;;;;;;;;;5084417;28;20044;-63
2022/03/15 01:22:04;;;;;;;11.40;5.38;;;;;;;;;;5084102;28;20040;-62
2022/03/15 01:24:30;;;;;;;11.35;6.03;;;;;;;;;;5083763;28;20040;-62
2022/03/15 01:26:58;;;;;;;12.70;5.55;;;;;;;;;;5088570;28;20042;-62
2022/03/15 01:29:26;;;;;;;9.40;4.32;;;;;;;;;;5087050;28;20457;-62
2022/03/15 01:31:53;;;;;;;8.90;5.22;;;;;;;;;;5083418;28;20040;-62
2022/03/15 01:34:20;;;;;;;7.70;4.13;;;;;;;;;;5088779;28;20036;-62
2022/03/15 01:36:46;;;;;;;11.23;4.93;;;;;;;;;;5087815;28;20115;-62
2022/03/15 01:39:12;;;;;;;9.68;5.10;;;;;;;;;;5086855;28;20413;-62
2022/03/15 01:41:41;;;;;;;10.20;6.20;;;;;;;;;;5087150;28;20051;-62
2022/03/15 01:44:17;;;;;;;12.82;6.70;;;;;;;;;;5077215;28;20044;-62
2022/03/15 01:46:44;;;;;;;14.98;6.63;;;;;;;;;;5082325;28;20413;-62
2022/03/15 01:49:10;;;;;;;12.50;6.45;;;;;;;;;;5088175;28;20123;-62
2022/03/15 01:51:40;;;;;;;13.05;6.55;;;;;;;;;;5085163;28;20036;-62
2022/03/15 01:54:07;;;;;;;10.50;5.47;;;;;;;;;;5084246;28;20040;-62
2022/03/15 01:56:34;;;;;;;9.70;5.35;;;;;;;;;;5087440;28;20534;-62
2022/03/15 01:59:00;;;;;;;8.80;5.30;;;;;;;;;;5086078;28;20494;-62
2022/03/15 02:01:26;;;;;;;7.88;4.30;;;;;;;;;;5084482;28;20440;-62
2022/03/15 02:03:52;;;;;;;10.27;5.07;;;;;;;;;;5084134;28;20138;-62
2022/03/15 02:06:18;;;;;;;8.68;4.68;;;;;;;;;;5086435;28;20065;-61
2022/03/15 02:08:44;;;;;;;11.55;3.90;;;;;;;;;;5087733;28;20048;-62
2022/03/15 02:11:10;;;;;;;7.38;4.40;;;;;;;;;;5085634;28;20091;-62
2022/03/15 02:13:36;;;;;;;9.50;4.20;;;;;;;;;;5082138;28;20610;-62
2022/03/15 02:16:02;;;;;;;9.13;4.38;;;;;;;;;;5086584;28;20040;-62
2022/03/15 02:18:28;;;;;;;7.72;4.20;;;;;;;;;;5091179;28;20129;-62
2022/03/15 02:20:54;;;;;;;10.48;4.57;;;;;;;;;;5090628;28;20048;-62
2022/03/15 02:23:21;;;;;;;9.60;4.18;;;;;;;;;;5091517;28;20059;-62
2022/03/15 02:25:47;;;;;;;10.40;5.78;;;;;;;;;;5088727;28;20158;-62
2022/03/15 02:28:13;;;;;;;11.82;4.88;;;;;;;;;;5087136;28;20104;-62
2022/03/15 02:30:39;;;;;;;13.05;6.07;;;;;;;;;;5090901;28;20044;-62
2022/03/15 02:33:05;;;;;;;9.73;4.82;;;;;;;;;;5089772;28;20486;-62
2022/03/15 02:35:31;;;;;;;12.77;5.75;;;;;;;;;;5087041;28;20038;-62
2022/03/15 02:37:57;;;;;;;9.32;5.30;;;;;;;;;;5089749;28;20052;-62
2022/03/15 02:40:23;;;;;;;15.45;5.35;;;;;;;;;;5090231;28;20483;-63
2022/03/15 02:42:49;;;;;;;10.63;6.50;;;;;;;;;;5089112;28;20048;-62
2022/03/15 02:45:16;;;;;;;8.38;5.10;;;;;;;;;;5089698;28;20082;-62
2022/03/15 02:47:43;;;;;;;10.43;4.68;;;;;;;;;;5090738;28;20047;-62
2022/03/15 02:50:09;;;;;;;11.48;5.25;;;;;;;;;;5092152;28;20436;-62
2022/03/15 02:52:35;;;;;;;10.27;4.72;;;;;;;;;;5089077;28;20079;-63
2022/03/15 02:55:05;;;;;;;7.25;4.32;;;;;;;;;;5089319;28;20044;-62
2022/03/15 02:57:31;;;;;;;9.70;5.25;;;;;;;;;;5088686;28;20048;-63
2022/03/15 02:59:57;;;;;;;10.60;5.07;;;;;;;;;;5090424;28;20042;-62
2022/03/15 03:02:24;;;;;;;10.77;4.80;;;;;;;;;;5089510;28;20043;-62
2022/03/15 03:04:51;;;;;;;11.15;5.03;;;;;;;;;;5090690;28;20036;-62
2022/03/15 03:07:18;;;;;;;8.82;4.47;;;;;;;;;;5087127;28;20042;-62
2022/03/15 03:09:45;;;;;;;8.73;4.50;;;;;;;;;;5090533;28;20070;-62
2022/03/15 03:12:16;;;;;;;9.90;4.50;;;;;;;;;;5089402;28;20071;-62
2022/03/15 03:14:45;;;;;;;7.90;4.47;;;;;;;;;;5090701;28;20054;-62
2022/03/15 03:17:11;;;;;;;9.57;5.68;;;;;;;;;;5088479;28;20043;-62
2022/03/15 03:19:38;;;;;;;11.30;5.10;;;;;;;;;;5091955;28;20040;-62
2022/03/15 03:22:05;;;;;;;9.07;5.10;;;;;;;;;;5087802;28;20549;-61
2022/03/15 03:24:31;;;;;;;11.18;5.75;;;;;;;;;;5089736;28;20054;-61
2022/03/15 03:27:00;;;;;;;11.52;5.32;;;;;;;;;;5090590;28;20039;-62
2022/03/15 03:29:29;;;;;;;13.77;6.43;;;;;;;;;;5090702;28;20402;-61
2022/03/15 03:31:55;;;;;;;12.90;7.15;;;;;;;;;;5089237;28;20039;-63
2022/03/15 03:34:22;;;;;;;13.23;6.78;;;;;;;;;;5086046;28;20036;-62
2022/03/15 03:36:48;;;;;;;13.10;6.82;;;;;;;;;;5084339;28;20763;-62
2022/03/15 03:39:14;;;;;;;15.40;6.63;;;;;;;;;;5078429;28;20410;-62
2022/03/15 03:41:40;;;;;;;16.30;6.60;;;;;;;;;;5089180;28;20047;-61
2022/03/15 03:44:06;;;;;;;13.13;6.35;;;;;;;;;;5088833;28;20036;-62
2022/03/15 03:46:32;;;;;;;13.10;6.32;;;;;;;;;;5080855;28;20055;-61
2022/03/15 03:48:58;;;;;;;12.27;6.22;;;;;;;;;;5080177;28;20043;-62
2022/03/15 03:51:24;;;;;;;12.45;6.68;;;;;;;;;;5083202;28;20035;-62
2022/03/15 03:53:51;;;;;;;10.73;5.53;;;;;;;;;;5082671;28;20036;-63
2022/03/15 03:56:17;;;;;;;12.73;5.22;;;;;;;;;;5085662;28;20083;-62
2022/03/15 03:58:43;;;;;;;11.15;5.55;;;;;;;;;;5086071;28;20068;-62
2022/03/15 04:01:09;;;;;;;10.27;5.15;;;;;;;;;;5086028;28;20032;-62
2022/03/15 04:03:35;;;;;;;11.35;5.35;;;;;;;;;;5089568;28;20130;-62
2022/03/15 04:06:03;;;;;;;10.70;5.60;;;;;;;;;;5090107;28;20507;-62
2022/03/15 04:08:31;;;;;;;9.95;4.93;;;;;;;;;;5089205;28;20075;-62
2022/03/15 04:10:57;;;;;;;11.77;5.90;;;;;;;;;;5089511;28;20141;-63
2022/03/15 04:13:25;;;;;;;13.45;6.43;;;;;;;;;;5088947;28;20071;-62
2022/03/15 04:15:51;;;;;;;16.52;7.05;;;;;;;;;;5088482;28;20071;-62
2022/03/15 04:18:17;;;;;;;13.43;6.53;;;;;;;;;;5086353;28;20036;-63
2022/03/15 04:20:43;;;;;;;10.57;6.40;;;;;;;;;;5090696;28;20090;-62
2022/03/15 04:23:14;;;;;;;12.20;7.20;;;;;;;;;;5088176;28;20051;-62
2022/03/15 04:25:40;;;;;;;7.93;6.32;;;;;;;;;;5087441;28;20546;-62
2022/03/15 04:28:07;;;;;;;11.13;6.60;;;;;;;;;;5083234;28;20051;-61
2022/03/15 04:30:33;;;;;;;9.63;5.82;;;;;;;;;;5086473;28;20047;-62
2022/03/15 04:33:01;;;;;;;16.48;6.22;;;;;;;;;;5086528;28;20028;-61
2022/03/15 04:35:28;;;;;;;11.63;6.78;;;;;;;;;;5090552;28;20044;-61
2022/03/15 04:37:54;;;;;;;12.20;6.85;;;;;;;;;;5087841;28;20386;-62
2022/03/15 04:40:20;;;;;;;12.13;7.18;;;;;;;;;;5081888;28;20039;-62
2022/03/15 04:42:48;;;;;;;13.45;7.97;;;;;;;;;;5084729;28;20049;-62
2022/03/15 04:45:14;;;;;;;14.65;8.13;;;;;;;;;;5087817;28;20054;-61
2022/03/15 04:47:40;;;;;;;19.58;9.68;;;;;;;;;;5082527;28;20119;-62
2022/03/15 04:50:07;;;;;;;22.75;12.27;;;;;;;;;;5081725;28;20166;-61
2022/03/15 04:52:34;;;;;;;23.95;11.77;;;;;;;;;;5080354;28;20075;-62
2022/03/15 04:55:00;;;;;;;22.27;13.82;;;;;;;;;;5081710;28;20100;-62
2022/03/15 04:57:26;;;;;;;29.25;15.10;;;;;;;;;;5080924;28;20055;-61
2022/03/15 04:59:53;;;;;;;31.25;16.00;;;;;;;;;;5082546;28;20044;-62
2022/03/15 05:02:19;;;;;;;25.33;15.60;;;;;;;;;;5088964;28;20040;-62
2022/03/15 05:04:45;;;;;;;28.88;17.05;;;;;;;;;;5088940;28;20054;-62
2022/03/15 05:07:11;;;;;;;31.98;16.67;;;;;;;;;;5086954;28;20448;-63
2022/03/15 05:11:05;;;;;;;30.73;17.65;;;;;;;;;;5083626;28;20126;-63
2022/03/15 05:12:25;;;;;;;36.22;17.73;;;;;;;;;;5088457;28;20034;-62
2022/03/15 05:14:51;;;;;;;32.33;19.23;;;;;;;;;;5087953;28;20040;-63
2022/03/15 05:17:19;;;;;;;37.53;18.92;;;;;;;;;;5087032;28;20036;-62
2022/03/15 05:19:46;;;;;;;32.63;18.50;;;;;;;;;;5089694;28;20127;-62
2022/03/15 05:22:12;;;;;;;32.03;18.85;;;;;;;;;;5086729;28;20039;-62
2022/03/15 05:24:38;;;;;;;30.38;18.17;;;;;;;;;;5089609;28;20036;-61
2022/03/15 05:27:04;;;;;;;36.85;19.73;;;;;;;;;;5083767;28;20078;-62
2022/03/15 05:29:30;;;;;;;31.25;18.92;;;;;;;;;;5083491;28;20058;-61
2022/03/15 05:31:56;;;;;;;33.17;20.00;;;;;;;;;;5081735;28;20442;-62
2022/03/15 05:34:22;;;;;;;33.33;17.48;;;;;;;;;;5086629;28;20363;-62
2022/03/15 05:36:48;;;;;;;33.40;19.55;;;;;;;;;;5081489;28;20043;-62
2022/03/15 05:39:15;;;;;;;40.30;19.50;;;;;;;;;;5081853;28;20040;-62
2022/03/15 05:41:41;;;;;;;32.28;20.05;;;;;;;;;;5082791;28;20062;-62
2022/03/15 05:44:07;;;;;;;34.72;19.67;;;;;;;;;;5083305;28;20045;-62
2022/03/15 05:46:34;;;;;;;34.55;20.30;;;;;;;;;;5085253;28;20137;-62
2022/03/15 05:49:01;;;;;;;35.20;19.42;;;;;;;;;;5084290;28;20051;-62
2022/03/15 05:51:27;;;;;;;30.13;18.33;;;;;;;;;;5084454;28;20036;-62
2022/03/15 05:53:53;;;;;;;29.65;18.45;;;;;;;;;;5088887;28;20421;-62
2022/03/15 05:56:19;;;;;;;36.78;19.45;;;;;;;;;;5091671;28;20059;-62
2022/03/15 05:58:46;;;;;;;33.40;19.15;;;;;;;;;;5089034;28;20050;-62
2022/03/15 06:01:12;;;;;;;33.80;19.25;;;;;;;;;;5086534;28;20390;-61
2022/03/15 06:03:38;;;;;;;31.30;18.65;;;;;;;;;;5091186;28;20448;-62
2022/03/15 06:06:04;;;;;;;34.85;19.58;;;;;;;;;;5090845;28;20048;-62
2022/03/15 06:08:30;;;;;;;36.65;21.23;;;;;;;;;;5090889;28;20043;-63
2022/03/15 06:10:57;;;;;;;31.45;20.17;;;;;;;;;;5089604;28;20590;-62
2022/03/15 06:13:24;;;;;;;36.15;20.55;;;;;;;;;;5090913;28;20040;-62
2022/03/15 06:15:50;;;;;;;33.42;19.63;;;;;;;;;;5090886;28;20036;-62
2022/03/15 06:18:16;;;;;;;34.42;19.55;;;;;;;;;;5088827;28;20048;-62
2022/03/15 06:20:42;;;;;;;32.10;18.90;;;;;;;;;;5090705;28;20050;-62
2022/03/15 06:23:08;;;;;;;32.22;20.15;;;;;;;;;;5087141;28;20068;-61
2022/03/15 06:25:35;;;;;;;34.13;18.88;;;;;;;;;;5084199;28;20075;-62
2022/03/15 06:28:01;;;;;;;32.53;19.13;;;;;;;;;;5091252;28;20090;-62
2022/03/15 06:30:27;;;;;;;37.22;20.95;;;;;;;;;;5087579;28;20047;-63
2022/03/15 06:32:53;;;;;;;32.72;19.52;;;;;;;;;;5091705;28;20057;-62
2022/03/15 06:35:20;;;;;;;36.45;20.73;;;;;;;;;;5088668;28;20120;-62
2022/03/15 06:37:47;;;;;;;38.40;20.08;;;;;;;;;;5082797;28;20071;-62
2022/03/15 06:40:14;;;;;;;33.33;20.52;;;;;;;;;;5092338;28;20092;-61
2022/03/15 06:42:41;;;;;;;37.47;21.27;;;;;;;;;;5091808;28;20043;-63
2022/03/15 06:45:08;;;;;;;36.35;22.20;;;;;;;;;;5088344;28;20137;-62
2022/03/15 06:47:38;;;;;;;36.95;21.10;;;;;;;;;;5091529;28;20047;-64
2022/03/15 06:50:08;;;;;;;31.38;20.25;;;;;;;;;;5091505;28;20398;-62
2022/03/15 06:52:34;;;;;;;37.40;20.92;;;;;;;;;;5090118;28;20418;-61
2022/03/15 06:55:00;;;;;;;36.08;20.75;;;;;;;;;;5090243;28;20062;-62
2022/03/15 06:57:26;;;;;;;33.47;20.25;;;;;;;;;;5090220;28;20148;-61
2022/03/15 06:59:56;;;;;;;27.67;18.45;;;;;;;;;;5090382;28;20040;-62
2022/03/15 07:02:22;;;;;;;34.85;20.17;;;;;;;;;;5091687;28;20032;-61
2022/03/15 07:04:48;;;;;;;31.77;19.08;;;;;;;;;;5091581;28;20044;-61
2022/03/15 07:07:15;;;;;;;34.78;20.52;;;;;;;;;;5091660;28;20079;-61
2022/03/15 07:09:42;;;;;;;32.67;19.38;;;;;;;;;;5092664;28;20040;-62
2022/03/15 07:12:08;;;;;;;30.50;19.98;;;;;;;;;;5092473;28;20032;-62
2022/03/15 07:14:34;;;;;;;36.30;20.92;;;;;;;;;;5092899;28;20052;-61
2022/03/15 07:17:00;;;;;;;35.10;21.02;;;;;;;;;;5092482;28;20032;-63
2022/03/15 07:19:27;;;;;;;30.65;19.38;;;;;;;;;;5092519;28;20135;-62
2022/03/15 07:21:53;;;;;;;29.25;19.65;;;;;;;;;;5092247;28;20425;-62
2022/03/15 07:24:19;;;;;;;33.22;20.02;;;;;;;;;;5092410;28;20425;-62
2022/03/15 07:26:45;;;;;;;34.92;21.45;;;;;;;;;;5092199;28;20055;-61
2022/03/15 07:29:11;;;;;;;32.60;20.58;;;;;;;;;;5092285;28;20036;-62
2022/03/15 07:31:37;;;;;;;29.88;20.05;;;;;;;;;;5092618;28;20040;-62
2022/03/15 07:34:03;;;;;;;31.60;20.55;;;;;;;;;;5092022;28;20040;-63
2022/03/15 07:36:29;;;;;;;33.30;20.23;;;;;;;;;;5092265;28;20491;-61
2022/03/15 07:38:56;;;;;;;31.98;20.15;;;;;;;;;;5091856;28;20044;-62
2022/03/15 07:41:23;;;;;;;30.30;19.88;;;;;;;;;;5091894;28;20036;-61
2022/03/15 07:43:50;;;;;;;33.13;20.27;;;;;;;;;;5091876;28;20065;-61
2022/03/15 07:46:16;;;;;;;32.72;20.05;;;;;;;;;;5091984;28;20046;-61
2022/03/15 07:48:43;;;;;;;35.60;20.52;;;;;;;;;;5091846;28;20040;-61
2022/03/15 07:51:09;;;;;;;29.52;20.48;;;;;;;;;;5091911;28;20036;-61
2022/03/15 07:53:35;;;;;;;31.65;20.65;;;;;;;;;;5091957;28;20039;-61
2022/03/15 07:56:01;;;;;;;37.15;22.00;;;;;;;;;;5091336;28;20422;-62
2022/03/15 07:58:28;;;;;;;38.53;22.38;;;;;;;;;;5091651;28;20040;-61
2022/03/15 08:00:56;;;;;;;33.58;20.95;;;;;;;;;;5091660;28;20076;-62
2022/03/15 08:03:24;;;;;;;37.58;22.08;;;;;;;;;;5092164;28;20410;-62
2022/03/15 08:05:50;;;;;;;36.88;21.90;;;;;;;;;;5091651;28;20044;-62
2022/03/15 08:08:16;;;;;;;34.45;20.80;;;;;;;;;;5091313;28;20058;-62
2022/03/15 08:10:43;;;;;;;31.90;20.38;;;;;;;;;;5091591;28;20117;-62
2022/03/15 08:13:09;;;;;;;32.75;21.27;;;;;;;;;;5091501;28;20036;-61
2022/03/15 08:15:35;;;;;;;32.67;20.02;;;;;;;;;;5091412;28;20071;-62
2022/03/15 08:18:03;;;;;;;35.60;20.98;;;;;;;;;;5091219;28;20074;-62
2022/03/15 08:20:39;;;;;;;33.30;19.83;;;;;;;;;;5091393;28;20032;-61
2022/03/15 08:23:05;;;;;;;31.33;20.00;;;;;;;;;;5089770;28;20134;-62
2022/03/15 08:25:31;;;;;;;30.25;19.52;;;;;;;;;;5091508;28;20032;-63
2022/03/15 08:27:58;;;;;;;36.45;19.80;;;;;;;;;;5091276;28;20044;-62
2022/03/15 08:30:24;;;;;;;33.92;20.90;;;;;;;;;;5091519;28;20123;-62
2022/03/15 08:32:50;;;;;;;29.25;19.30;;;;;;;;;;5091231;28;20047;-62
2022/03/15 08:35:16;;;;;;;28.95;18.55;;;;;;;;;;5091043;28;20040;-61
2022/03/15 08:37:42;;;;;;;28.52;19.65;;;;;;;;;;5090701;28;20054;-61
2022/03/15 08:40:09;;;;;;;33.92;21.00;;;;;;;;;;5089711;28;20040;-62
2022/03/15 08:42:35;;;;;;;29.58;19.23;;;;;;;;;;5089945;28;20117;-62
2022/03/15 08:45:01;;;;;;;31.30;18.48;;;;;;;;;;5091103;28;20059;-63
2022/03/15 08:47:28;;;;;;;27.10;17.95;;;;;;;;;;5090847;28;20165;-63
2022/03/15 08:49:55;;;;;;;31.58;20.13;;;;;;;;;;5090762;28;20089;-60
2022/03/15 08:52:21;;;;;;;29.33;19.83;;;;;;;;;;5089427;28;20032;-62
2022/03/15 08:54:47;;;;;;;29.75;19.58;;;;;;;;;;5090714;28;20066;-62
2022/03/15 08:57:14;;;;;;;27.88;17.77;;;;;;;;;;5091105;28;20048;-61
2022/03/15 08:59:41;;;;;;;32.58;18.60;;;;;;;;;;5090959;28;20047;-62
2022/03/15 09:02:09;;;;;;;30.45;18.85;;;;;;;;;;5090835;28;20105;-62
2022/03/15 09:04:35;;;;;;;30.45;19.90;;;;;;;;;;5089120;28;20101;-62
2022/03/15 09:07:01;;;;;;;35.30;20.05;;;;;;;;;;5090919;28;20039;-62
2022/03/15 09:09:27;;;;;;;32.40;22.40;;;;;;;;;;5090347;28;20487;-62
2022/03/15 09:11:53;;;;;;;37.83;22.33;;;;;;;;;;5090936;28;20068;-62
2022/03/15 09:14:19;;;;;;;36.03;20.48;;;;;;;;;;5089516;28;20487;-62
2022/03/15 09:16:46;;;;;;;30.15;19.98;;;;;;;;;;5090626;28;20119;-62
2022/03/15 09:19:12;;;;;;;26.52;18.50;;;;;;;;;;5090654;28;20113;-61
2022/03/15 09:21:38;;;;;;;28.50;18.02;;;;;;;;;;5090335;28;20051;-61
2022/03/15 09:24:04;;;;;;;32.30;19.30;;;;;;;;;;5090709;28;20064;-62
2022/03/15 09:26:30;;;;;;;28.38;20.70;;;;;;;;;;5094524;28;20040;-62
2022/03/15 09:28:56;;;;;;;26.88;17.65;;;;;;;;;;5087714;28;20040;-63
2022/03/15 09:31:23;;;;;;;31.25;18.50;;;;;;;;;;5094601;28;20423;-62
2022/03/15 09:33:49;;;;;;;29.33;17.65;;;;;;;;;;5094354;28;20036;-62
2022/03/15 09:36:16;;;;;;;26.52;18.25;;;;;;;;;;5093622;28;20089;-63
2022/03/15 09:38:42;;;;;;;33.55;17.00;;;;;;;;;;5094400;28;20039;-62
2022/03/15 09:41:08;;;;;;;27.25;17.92;;;;;;;;;;5094594;28;20375;-62
2022/03/15 09:43:39;;;;;;;27.98;18.73;;;8.50;99.90;;;;;;5094303;28;20044;-61
2022/03/15 09:46:06;;;;;;;27.23;17.77;;;;;;;;;;5093263;28;20039;-62
2022/03/15 09:48:34;;;;;;;24.95;17.73;;;;;;;;;;5093914;28;20044;-62
2022/03/15 09:51:04;;;;;;;27.15;18.25;;;8.50;99.90;;;;;;5094376;28;20441;-62
2022/03/15 09:53:34;;;;;;;28.63;17.48;;;8.80;99.90;;;;;;5094032;28;20040;-61
2022/03/15 09:56:00;;;;;;;22.85;15.77;;;;;;;;;;5093938;28;20050;-61
2022/03/15 09:58:26;;;;;;;25.45;17.50;;;;;;;;;;5093955;28;20047;-62
2022/03/15 10:00:54;;;;;;;25.15;16.73;;;;;;;;;;5093755;28;20483;-61
2022/03/15 10:03:21;;;;;;;27.88;16.75;;;;;;;;;;5094200;28;20036;-61
2022/03/15 10:05:49;;;;;;;26.80;17.80;;;;;;;;;;5093877;28;20044;-62
2022/03/15 10:08:15;;;;;;;24.20;17.00;;;;;;;;;;5092985;28;20383;-63
2022/03/15 10:10:42;;;;;;;25.40;16.48;;;;;;;;;;5093587;28;20075;-62
2022/03/15 10:13:08;;;;;;;25.95;16.08;;;;;;;;;;5093828;28;20054;-62
2022/03/15 10:15:34;;;;;;;24.80;16.23;;;;;;;;;;5092340;28;20043;-61
2022/03/15 10:18:06;;;;;;;27.27;15.80;;;;;;;;;;5093671;28;20036;-61
2022/03/15 10:20:40;;;;;;;24.38;16.30;;;;;;;;;;5093673;28;20032;-62
2022/03/15 10:23:09;;;;;;;25.65;15.85;;;;;;;;;;5093707;28;20075;-62
2022/03/15 10:25:36;;;;;;;25.25;15.43;;;;;;;;;;5093448;28;20115;-61
2022/03/15 10:28:05;;;;;;;24.15;15.75;;;9.40;99.90;;;;;;5093253;28;20107;-62
2022/03/15 10:30:31;;;;;;;21.33;14.73;;;;;;;;;;5092164;28;20425;-62
2022/03/15 10:32:58;;;;;;;24.50;15.70;;;;;;;;;;5093314;28;20124;-62
2022/03/15 10:35:25;;;;;;;22.95;15.25;;;;;;;;;;5093431;28;20040;-61
2022/03/15 10:37:52;;;;;;;23.73;14.30;;;;;;;;;;5090725;28;20051;-62
2022/03/15 10:40:30;;;;;;;24.02;15.18;;;9.80;99.90;;;;;;5093438;28;20089;-63
2022/03/15 10:43:06;;;;;;;21.75;14.32;;;9.80;99.90;;;;;;5093274;28;20486;-61
2022/03/15 10:45:34;;;;;;;23.35;15.05;;;9.80;99.90;;;;;;5093461;28;20028;-63
2022/03/15 10:48:00;;;;;;;23.30;14.68;;;;;;;;;;5093014;28;20119;-62
2022/03/15 10:50:29;;;;;;;23.00;15.48;;;;;;;;;;5093130;28;20163;-62
2022/03/15 10:52:56;;;;;;;24.08;15.50;;;;;;;;;;5091646;28;20066;-62
2022/03/15 10:55:28;;;;;;;21.88;14.68;;;10.50;99.90;;;;;;5093078;28;20437;-62
2022/03/15 10:58:04;;;;;;;23.48;14.00;;;10.60;99.90;;;;;;5092739;28;20177;-62
2022/03/15 11:00:35;;;;;;;22.92;15.40;;;;;;;;;;5092932;28;20040;-62
2022/03/15 11:03:02;;;;;;;27.10;14.40;;;;;;;;;;5092714;28;20486;-62
2022/03/15 11:05:35;;;;;;;20.88;13.40;;;11.20;99.90;;;;;;5092630;28;20036;-63
2022/03/15 11:08:09;;;;;;;22.23;13.30;;;11.10;99.90;;;;;;5092470;28;20105;-62
2022/03/15 11:10:37;;;;;;;21.98;14.00;;;;;;;;;;5092927;28;20487;-62
2022/03/15 11:13:11;;;;;;;24.27;14.27;;;11.10;99.90;;;;;;5091334;28;20123;-62
2022/03/15 11:15:57;;;;;;;23.52;14.50;;;;;;;;;;5092365;28;20032;-62
2022/03/15 11:18:27;;;;;;;24.52;14.20;;;11.10;99.90;;;;;;5092637;28;20039;-61
2022/03/15 11:20:53;;;;;;;22.58;12.73;;;;;;;;;;5091125;28;20044;-63
2022/03/15 11:23:22;;;;;;;22.15;12.43;;;11.40;99.90;;;;;;5092467;28;20047;-62
2022/03/15 11:25:54;;;;;;;20.65;13.00;;;;;;;;;;5091260;28;20036;-63
2022/03/15 11:28:27;;;;;;;21.52;11.98;;;11.10;99.90;;;;;;5092370;28;20131;-62
2022/03/15 11:30:55;;;;;;;19.35;12.07;;;11.30;99.90;;;;;;5092333;28;20032;-61
2022/03/15 11:33:21;;;;;;;22.30;13.88;;;11.40;99.90;;;;;;5092467;28;20438;-62
2022/03/15 11:35:47;;;;;;;22.52;13.18;;;;;;;;;;5092392;28;20032;-61
2022/03/15 11:38:14;;;;;;;23.40;12.77;;;;;;;;;;5091909;28;20046;-62
2022/03/15 11:40:40;;;;;;;20.00;12.88;;;;;;;;;;5092250;28;20100;-62
2022/03/15 11:43:15;;;;;;;22.85;12.45;;;;;;;;;;5091489;28;20036;-62
2022/03/15 11:46:06;;;;;;;21.42;11.98;;;11.40;99.90;;;;;;5091997;28;20039;-61
2022/03/15 11:48:44;;;;;;;20.45;11.90;;;;;;;;;;5091646;28;20044;-61
2022/03/15 11:51:31;;;;;;;17.50;12.57;;;11.20;99.90;;;;;;5091848;28;20036;-63
2022/03/15 11:54:26;;;;;;;19.33;12.45;;;11.30;99.90;;;;;;5091848;28;20119;-62
2022/03/15 11:57:02;;;;;;;17.85;12.02;;;11.40;99.90;;;;;;5090922;28;20521;-61
2022/03/15 11:59:45;;;;;;;19.20;11.18;;;11.60;99.90;;;;;;5091755;28;20565;-64
2022/03/15 12:02:11;;;;;;;16.83;11.57;;;;;;;;;;5091942;28;20043;-61
2022/03/15 12:04:40;;;;;;;19.50;11.98;;;11.20;99.90;;;;;;5091782;28;20044;-61
2022/03/15 12:07:07;;;;;;;21.83;12.35;;;;;;;;;;5091475;28;20079;-62
2022/03/15 12:09:34;;;;;;;18.48;11.88;;;;;;;;;;5091929;28;20115;-62
2022/03/15 12:12:01;;;;;;;22.70;11.77;;;;;;;;;;5091438;28;20066;-62
2022/03/15 12:14:38;;;;;;;17.20;11.07;;;11.90;99.90;;;;;;5091365;28;20043;-63
2022/03/15 12:17:04;;;;;;;15.35;10.63;;;;;;;;;;5091394;28;20165;-63
2022/03/15 12:19:40;;;;;;;20.35;12.10;;;;;;;;;;5090292;28;20040;-63
2022/03/15 12:22:07;;;;;;;15.27;11.15;;;;;;;;;;5089908;28;20048;-63
2022/03/15 12:24:46;;;;;;;23.90;12.32;;;;;;;;;;5091252;28;20074;-63
2022/03/15 12:27:15;;;;;;;21.15;12.43;;;;;;;;;;5091343;28;20130;-63
2022/03/15 12:30:00;;;;;;;17.92;12.40;;;;;;;;;;5091193;28;20044;-63
2022/03/15 12:32:27;;;;;;;20.17;12.05;;;;;;;;;;5089952;28;20039;-63
2022/03/15 12:34:55;;;;;;;16.70;11.88;;;;;;;;;;5091375;28;20484;-62
2022/03/15 12:37:33;;;;;;;18.80;12.38;;;12.40;99.90;;;;;;5089545;28;20040;-62
2022/03/15 12:40:02;;;;;;;17.55;12.35;;;12.70;99.90;;;;;;5091246;28;20090;-62
2022/03/15 12:42:28;;;;;;;20.40;12.75;;;;;;;;;;5090978;28;20036;-63
2022/03/15 12:45:10;;;;;;;19.95;12.20;;;14.20;99.90;;;;;;5089845;28;20040;-62
2022/03/15 12:47:40;;;;;;;18.05;10.98;;;;;;;;;;5091014;28;20039;-63
2022/03/15 12:50:15;;;;;;;16.27;11.13;;;15.20;99.90;;;;;;5091214;28;20048;-63
2022/03/15 12:52:42;;;;;;;17.70;11.15;;;;;;;;;;5090809;28;20096;-63
2022/03/15 12:55:25;;;;;;;15.63;10.63;;;15.70;99.90;;;;;;5090920;28;20087;-62
2022/03/15 12:57:51;;;;;;;;;;;;;;;;;;5091304;28;20036;-62
2022/03/15 13:00:18;;;;;;;17.88;10.90;;;;;;;;;;5089890;28;20267;-62
2022/03/15 13:02:46;;;;;;;16.52;9.77;;;16.60;99.90;;;;;;5090732;28;20054;-62
2022/03/15 13:05:16;;;;;;;17.15;10.55;;;;;;;;;;5090749;28;20132;-62
2022/03/15 13:07:42;;;;;;;16.25;9.90;;;;;;;;;;5090796;28;20545;-62
2022/03/15 13:10:13;;;;;;;17.52;10.32;;;;;;;;;;5091151;28;20075;-64
2022/03/15 13:12:41;;;;;;;15.27;9.93;;;;;;;;;;5090581;28;20047;-62
2022/03/15 13:15:08;;;;;;;14.50;8.18;;;18.90;99.90;;;;;;5090906;28;20067;-62
2022/03/15 13:17:34;;;;;;;13.65;7.10;;;;;;;;;;5090600;28;20048;-63
2022/03/15 13:20:01;;;;;;;11.77;7.20;;;;;;;;;;5090784;28;20487;-63
2022/03/15 13:22:29;;;;;;;13.02;8.82;;;19.20;99.90;;;;;;5090529;28;20510;-63
2022/03/15 13:24:56;;;;;;;11.85;7.03;;;18.90;99.90;;;;;;5090691;28;20363;-62
2022/03/15 13:27:22;;;;;;;14.23;8.02;;;;;;;;;;5089129;28;20481;-61
2022/03/15 13:29:48;;;;;;;14.48;8.07;;;;;;;;;;5090541;28;20452;-62
2022/03/15 13:32:20;;;;;;;14.10;6.50;;;20.10;99.90;;;;;;5090577;28;20028;-63
2022/03/15 13:34:53;;;;;;;13.25;7.72;;;;;;;;;;5090381;28;20417;-62
2022/03/15 13:37:21;;;;;;;14.23;6.28;;;21.10;99.90;;;;;;5090376;28;20036;-63
2022/03/15 13:39:47;;;;;;;12.85;6.22;;;;;;;;;;5090241;28;20157;-63
2022/03/15 13:42:15;;;;;;;13.27;6.82;;;;;;;;;;5090455;28;20040;-62
2022/03/15 13:44:49;;;;;;;12.10;6.70;;;23.00;99.90;;;;;;5090163;28;20039;-63
2022/03/15 13:47:17;;;;;;;13.63;6.82;;;;;;;;;;5090549;28;20028;-63
2022/03/15 13:49:57;;;;;;;10.40;6.45;;;;;;;;;;5090149;28;20047;-63
2022/03/15 13:52:23;;;;;;;12.77;6.72;;;;;;;;;;5090127;28;20054;-63
2022/03/15 13:55:02;;;;;;;10.57;6.53;;;24.20;97.90;;;;;;5090277;28;20052;-64
2022/03/15 13:57:28;;;;;;;9.05;6.60;;;;;;;;;;5090417;28;20039;-63
2022/03/15 14:00:17;;;;;;;10.60;6.45;;;23.20;97.60;;;;;;5090666;28;20051;-62
2022/03/15 14:02:45;;;;;;;11.05;5.97;;;;;;;;;;5089919;28;20039;-62
2022/03/15 14:05:14;;;;;;;10.57;6.53;;;21.90;97.60;;;;;;5090218;28;20060;-63
2022/03/15 14:07:40;;;;;;;13.65;6.60;;;;;;;;;;5090080;28;20051;-63
2022/03/15 14:10:08;;;;;;;10.75;5.95;;;;;;;;;;5090237;28;20128;-63
2022/03/15 14:12:35;;;;;;;12.38;5.75;;;;;;;;;;5093680;28;20121;-63